createdAt,value
2022-11-25T00:00:48.181Z,65.79
2022-11-25T00:03:20.718Z,64.95
2022-11-25T00:06:19.806Z,64.79
2022-11-25T00:09:09.650Z,64.61
2022-11-25T00:12:03.254Z,64.87
2022-11-25T00:14:45.730Z,64.58
2022-11-25T00:17:29.462Z,64.63
2022-11-25T00:20:10.797Z,64.93
2022-11-25T00:22:39.779Z,64.96
2022-11-25T00:25:09.972Z,65.61
2022-11-25T00:27:38.604Z,65.04
2022-11-25T00:30:08.030Z,65.17
2022-11-25T00:32:36.670Z,65.54
2022-11-25T00:35:04.698Z,65.06
2022-11-25T00:37:33.212Z,64.86
2022-11-25T00:40:01.634Z,65.21
2022-11-25T00:42:48.326Z,65.74
2022-11-25T00:45:16.674Z,65.24
2022-11-25T00:47:46.017Z,65.41
2022-11-25T00:50:13.701Z,65.79
2022-11-25T00:52:43.985Z,65.91
2022-11-25T00:55:13.038Z,66.54
2022-11-25T00:57:42.890Z,66.50
2022-11-25T01:00:14.445Z,66.27
2022-11-25T01:02:46.564Z,67.26
2022-11-25T01:05:14.628Z,67.34
2022-11-25T01:07:43.386Z,68.69
2022-11-25T01:10:11.511Z,68.84
2022-11-25T01:12:40.703Z,68.26
2022-11-25T01:15:09.440Z,67.92
2022-11-25T01:17:37.406Z,68.39
2022-11-25T01:20:06.654Z,68.34
2022-11-25T01:22:34.091Z,67.96
2022-11-25T01:25:05.237Z,67.80
2022-11-25T01:27:34.453Z,67.89
2022-11-25T01:30:02.416Z,67.58
2022-11-25T01:32:29.934Z,68.17
2022-11-25T01:34:58.662Z,68.12
2022-11-25T01:37:27.093Z,67.20
2022-11-25T01:39:54.654Z,66.23
2022-11-25T01:42:22.527Z,66.30
2022-11-25T01:45:26.588Z,66.45
2022-11-25T01:47:58.860Z,66.48
2022-11-25T01:50:27.870Z,66.68
2022-11-25T01:52:56.745Z,66.76
2022-11-25T01:55:27.527Z,66.94
2022-11-25T01:58:03.818Z,67.23
2022-11-25T02:00:51.362Z,68.28
2022-11-25T02:03:25.934Z,67.01
2022-11-25T02:06:19.800Z,66.84
2022-11-25T02:08:51.507Z,65.82
2022-11-25T02:11:20.366Z,65.01
2022-11-25T02:13:50.113Z,65.02
2022-11-25T02:16:17.755Z,66.28
2022-11-25T02:18:45.822Z,66.61
2022-11-25T02:21:16.634Z,67.58
2022-11-25T02:23:55.779Z,67.13
2022-11-25T02:26:43.089Z,67.18
2022-11-25T02:29:10.805Z,67.55
2022-11-25T02:31:38.721Z,67.27
2022-11-25T02:34:06.590Z,67.52
2022-11-25T02:36:34.766Z,67.88
2022-11-25T02:39:04.677Z,67.42
2022-11-25T02:41:35.478Z,66.32
2022-11-25T02:44:04.753Z,65.54
2022-11-25T02:46:32.943Z,63.71
2022-11-25T02:49:08.794Z,64.26
2022-11-25T02:51:38.401Z,64.59
2022-11-25T02:54:06.777Z,64.45
2022-11-25T02:56:35.499Z,63.65
2022-11-25T02:59:04.595Z,65.83
2022-11-25T03:01:32.942Z,65.83
2022-11-25T03:04:02.384Z,65.69
2022-11-25T03:06:31.660Z,65.82
2022-11-25T03:09:00.193Z,65.59
2022-11-25T03:11:47.307Z,66.27
2022-11-25T03:14:16.895Z,65.44
2022-11-25T03:16:48.102Z,66.07
2022-11-25T03:19:16.199Z,65.18
2022-11-25T03:21:44.090Z,65.74
2022-11-25T03:24:11.861Z,65.72
2022-11-25T03:26:40.660Z,65.25
2022-11-25T03:29:08.808Z,67.28
2022-11-25T03:31:36.528Z,65.95
2022-11-25T03:34:04.607Z,65.77
2022-11-25T03:36:32.495Z,64.85
2022-11-25T03:39:00.061Z,64.43
2022-11-25T03:41:28.564Z,63.94
2022-11-25T03:43:56.136Z,63.96
2022-11-25T03:46:23.900Z,63.73
2022-11-25T03:48:53.541Z,63.67
2022-11-25T03:51:22.337Z,64.19
2022-11-25T03:53:50.699Z,64.20
2022-11-25T03:56:27.477Z,64.55
2022-11-25T03:58:57.413Z,64.53
2022-11-25T04:01:26.089Z,64.53
2022-11-25T04:03:54.353Z,64.51
2022-11-25T04:06:24.084Z,65.21
2022-11-25T04:08:53.625Z,67.38
2022-11-25T04:11:48.035Z,68.71
2022-11-25T04:14:20.813Z,69.70
2022-11-25T04:16:53.165Z,68.09
2022-11-25T04:19:21.091Z,67.56
2022-11-25T04:21:52.362Z,68.29
2022-11-25T04:24:21.218Z,68.55
2022-11-25T04:26:50.306Z,67.22
2022-11-25T04:29:18.335Z,67.25
2022-11-25T04:31:46.133Z,66.88
2022-11-25T04:34:14.681Z,66.71
2022-11-25T04:36:44.715Z,65.98
2022-11-25T04:39:13.895Z,66.29
2022-11-25T04:41:43.207Z,65.50
2022-11-25T04:48:20.630Z,65.44
2022-11-25T04:50:49.671Z,66.82
2022-11-25T04:53:18.465Z,66.94
2022-11-25T04:55:47.514Z,65.79
2022-11-25T04:58:37.395Z,65.66
2022-11-25T05:01:05.548Z,65.79
2022-11-25T05:03:33.579Z,65.49
2022-11-25T05:06:07.686Z,65.05
2022-11-25T05:08:36.729Z,65.13
2022-11-25T05:11:05.795Z,65.25
2022-11-25T05:13:33.763Z,65.23
2022-11-25T05:16:07.826Z,65.43
2022-11-25T05:18:36.198Z,65.11
2022-11-25T05:21:25.048Z,64.52
2022-11-25T05:24:13.980Z,64.43
2022-11-25T05:26:52.927Z,64.08
2022-11-25T05:29:21.120Z,63.29
2022-11-25T05:31:50.395Z,63.21
2022-11-25T05:34:19.106Z,63.00
2022-11-25T05:36:48.767Z,62.82
2022-11-25T05:39:35.434Z,62.47
2022-11-25T05:42:06.804Z,62.93
2022-11-25T05:44:40.780Z,63.44
2022-11-25T05:47:26.019Z,63.55
2022-11-25T05:50:13.505Z,63.39
2022-11-25T05:52:42.692Z,63.94
2022-11-25T05:55:10.320Z,65.08
2022-11-25T05:57:38.201Z,65.25
2022-11-25T06:00:26.427Z,64.36
2022-11-25T06:03:03.154Z,64.21
2022-11-25T06:05:41.900Z,64.05
2022-11-25T06:08:19.371Z,63.89
2022-11-25T06:10:48.931Z,63.94
2022-11-25T06:13:18.399Z,63.59
2022-11-25T06:15:48.985Z,63.31
2022-11-25T06:18:20.191Z,63.11
2022-11-25T06:20:57.779Z,62.96
2022-11-25T06:23:28.730Z,63.16
2022-11-25T06:26:10.900Z,63.13
2022-11-25T06:29:03.358Z,63.10
2022-11-25T06:31:30.949Z,62.77
2022-11-25T06:34:06.615Z,63.83
2022-11-25T06:36:36.255Z,64.61
2022-11-25T06:41:42.405Z,63.92
2022-11-25T06:44:16.261Z,64.23
2022-11-25T06:46:48.790Z,64.15
2022-11-25T06:49:18.081Z,64.35
2022-11-25T06:51:45.993Z,63.98
2022-11-25T06:54:15.020Z,63.96
2022-11-25T06:56:51.895Z,63.72
2022-11-25T06:59:22.361Z,63.84
2022-11-25T07:02:15.060Z,63.50
2022-11-25T07:05:01.394Z,64.51
2022-11-25T07:07:51.481Z,64.82
2022-11-25T07:10:44.143Z,65.17
2022-11-25T07:13:26.817Z,66.03
2022-11-25T07:16:06.257Z,66.74
2022-11-25T07:18:41.421Z,66.68
2022-11-25T07:21:16.487Z,66.76
2022-11-25T07:23:47.913Z,66.62
2022-11-25T07:26:20.347Z,66.46
2022-11-25T07:28:54.408Z,66.21
2022-11-25T07:31:36.393Z,66.98
2022-11-25T07:34:18.322Z,67.08
2022-11-25T07:36:47.596Z,67.06
2022-11-25T07:39:19.872Z,66.79
2022-11-25T07:41:54.584Z,66.90
2022-11-25T07:47:03.648Z,66.00
2022-11-25T07:49:33.141Z,66.31
2022-11-25T07:52:03.200Z,66.72
2022-11-25T07:54:36.789Z,66.49
2022-11-25T07:57:07.047Z,67.02
2022-11-25T07:59:41.641Z,67.55
2022-11-25T08:04:54.062Z,66.38
2022-11-25T08:07:22.614Z,66.40
2022-11-25T08:09:51.792Z,65.63
2022-11-25T08:12:21.065Z,65.80
2022-11-25T08:14:48.968Z,65.07
2022-11-25T08:17:25.758Z,64.90
2022-11-25T08:19:55.504Z,64.32
2022-11-25T08:22:26.384Z,64.16
2022-11-25T08:24:58.667Z,63.98
2022-11-25T08:27:26.935Z,62.74
2022-11-25T08:30:01.945Z,62.62
2022-11-25T08:32:31.418Z,61.93
2022-11-25T08:35:00.889Z,61.75
2022-11-25T08:40:06.269Z,60.42
2022-11-25T08:42:34.376Z,61.67
2022-11-25T08:45:04.035Z,60.00
2022-11-25T08:47:33.929Z,59.87
2022-11-25T08:52:43.702Z,60.43
2022-11-25T08:55:23.112Z,59.59
2022-11-25T08:57:52.346Z,59.22
2022-11-25T09:00:22.366Z,58.17
2022-11-25T09:02:50.870Z,57.52
2022-11-25T09:05:21.396Z,58.20
2022-11-25T09:07:52.684Z,58.30
2022-11-25T09:10:23.875Z,59.91
2022-11-25T09:12:53.402Z,57.68
2022-11-25T09:15:21.806Z,57.44
2022-11-25T09:18:01.542Z,57.63
2022-11-25T09:20:32.541Z,58.31
2022-11-25T09:23:02.651Z,57.83
2022-11-25T09:25:31.438Z,56.93
2022-11-25T09:27:59.860Z,55.98
2022-11-25T09:30:27.821Z,56.25
2022-11-25T09:33:03.817Z,54.68
2022-11-25T09:35:32.285Z,55.33
2022-11-25T09:38:02.351Z,56.63
2022-11-25T09:40:36.666Z,56.44
2022-11-25T09:43:38.387Z,57.47
2022-11-25T09:46:41.934Z,54.46
2022-11-25T09:49:54.630Z,54.88
2022-11-25T09:52:53.733Z,54.63
2022-11-25T09:55:24.766Z,55.49
2022-11-25T09:58:19.519Z,54.27
2022-11-25T10:00:50.812Z,53.38
2022-11-25T10:03:43.459Z,53.49
2022-11-25T10:07:09.004Z,53.44
2022-11-25T10:09:37.541Z,52.28
2022-11-25T10:12:24.571Z,53.29
2022-11-25T10:15:01.781Z,52.91
2022-11-25T10:17:44.405Z,52.71
2022-11-25T10:20:29.497Z,51.96
2022-11-25T10:23:05.199Z,51.71
2022-11-25T10:25:46.141Z,51.93
2022-11-25T10:28:26.084Z,51.65
2022-11-25T10:31:08.511Z,52.62
2022-11-25T10:33:46.691Z,52.41
2022-11-25T10:36:29.539Z,51.57
2022-11-25T10:39:04.637Z,50.78
2022-11-25T10:41:56.987Z,51.32
2022-11-25T10:44:32.523Z,51.59
2022-11-25T10:47:25.175Z,52.23
2022-11-25T10:50:08.409Z,51.40
2022-11-25T10:52:48.094Z,50.76
2022-11-25T10:55:29.295Z,50.58
2022-11-25T11:05:46.819Z,51.36
2022-11-25T11:08:39.384Z,50.50
2022-11-25T11:11:26.373Z,52.54
2022-11-25T11:14:21.490Z,52.34
2022-11-25T11:17:23.579Z,51.26
2022-11-25T11:20:25.677Z,51.41
2022-11-25T11:23:08.900Z,52.36
2022-11-25T11:25:47.415Z,51.83
2022-11-25T11:28:40.384Z,49.96
2022-11-25T11:31:26.413Z,51.60
2022-11-25T11:34:32.425Z,50.57
2022-11-25T11:37:44.409Z,50.44
2022-11-25T11:40:43.906Z,51.19
2022-11-25T11:43:49.058Z,51.93
2022-11-25T11:46:59.483Z,51.52
2022-11-25T11:49:51.964Z,51.82
2022-11-25T11:53:03.044Z,53.04
2022-11-25T11:59:17.048Z,53.32
2022-11-25T12:02:13.224Z,51.47
2022-11-25T12:05:19.548Z,52.68
2022-11-25T12:08:14.734Z,54.02
2022-11-25T12:11:32.354Z,54.78
2022-11-25T12:14:45.757Z,53.56
2022-11-25T12:17:52.341Z,53.16
2022-11-25T12:20:55.378Z,52.40
2022-11-25T12:24:05.643Z,53.10
2022-11-25T12:31:27.853Z,52.38
2022-11-25T12:34:17.918Z,51.60
2022-11-25T12:37:15.616Z,51.75
2022-11-25T12:40:29.577Z,52.26
2022-11-25T12:43:28.799Z,54.80
2022-11-25T12:46:36.675Z,53.96
2022-11-25T12:49:26.408Z,54.58
2022-11-25T12:52:27.350Z,54.03
2022-11-25T13:00:39.131Z,53.07
2022-11-25T13:03:47.583Z,53.71
2022-11-25T13:06:55.389Z,54.33
2022-11-25T13:10:05.389Z,53.95
2022-11-25T13:13:18.708Z,53.92
2022-11-25T13:16:01.193Z,52.57
2022-11-25T13:18:47.300Z,53.13
2022-11-25T13:25:26.128Z,53.99
2022-11-25T13:28:34.664Z,53.95
2022-11-25T13:31:14.868Z,53.69
2022-11-25T13:34:23.643Z,54.14
2022-11-25T13:37:36.810Z,54.49
2022-11-25T13:40:33.419Z,54.27
2022-11-25T13:43:52.414Z,54.34
2022-11-25T13:46:43.140Z,54.94
2022-11-25T13:49:35.880Z,54.55
2022-11-25T13:55:19.456Z,55.37
2022-11-25T13:58:22.397Z,54.90
2022-11-25T14:01:28.016Z,55.27
2022-11-25T14:04:08.539Z,55.02
2022-11-25T14:07:34.589Z,56.07
2022-11-25T14:10:45.944Z,55.90
2022-11-25T14:13:44.052Z,56.20
2022-11-25T14:17:02.806Z,56.97
2022-11-25T14:23:22.675Z,56.77
2022-11-25T14:26:47.781Z,57.20
2022-11-25T14:29:27.345Z,57.35
2022-11-25T14:32:14.416Z,58.63
2022-11-25T14:34:52.427Z,58.65
2022-11-25T14:37:29.373Z,58.51
2022-11-25T14:40:36.716Z,58.56
2022-11-25T14:43:29.385Z,58.87
2022-11-25T14:46:21.034Z,58.39
2022-11-25T14:48:55.167Z,58.71
2022-11-25T14:51:40.408Z,58.91
2022-11-25T14:54:18.478Z,58.51
2022-11-25T14:56:51.664Z,58.63
2022-11-25T14:59:34.823Z,58.40
2022-11-25T15:02:40.541Z,58.32
2022-11-25T15:05:27.140Z,58.54
2022-11-25T15:08:21.294Z,58.40
2022-11-25T15:11:15.460Z,58.35
2022-11-25T15:14:06.365Z,59.32
2022-11-25T15:17:05.457Z,59.50
2022-11-25T15:19:54.830Z,59.92
2022-11-25T15:22:49.497Z,59.70
2022-11-25T15:25:37.079Z,59.51
2022-11-25T15:28:37.519Z,59.80
2022-11-25T15:31:21.895Z,59.59
2022-11-25T15:33:58.297Z,59.77
2022-11-25T15:36:28.424Z,59.51
2022-11-25T15:39:16.385Z,59.41
2022-11-25T15:41:52.619Z,59.67
2022-11-25T15:47:27.117Z,59.90
2022-11-25T15:50:05.768Z,59.94
2022-11-25T15:52:42.876Z,60.43
2022-11-25T15:55:40.368Z,59.76
2022-11-25T15:58:28.320Z,59.79
2022-11-25T16:01:17.378Z,59.82
2022-11-25T16:03:52.491Z,59.88
2022-11-25T16:07:21.362Z,59.95
2022-11-25T16:10:02.605Z,59.96
2022-11-25T16:12:37.660Z,60.56
2022-11-25T16:15:18.625Z,60.83
2022-11-25T16:18:24.927Z,61.07
2022-11-25T16:21:10.787Z,60.74
2022-11-25T16:23:44.327Z,60.64
2022-11-25T16:26:43.583Z,60.76
2022-11-25T16:29:41.083Z,60.58
2022-11-25T16:32:18.677Z,60.40
2022-11-25T16:35:15.362Z,60.61
2022-11-25T16:38:08.628Z,60.61
2022-11-25T16:44:04.772Z,60.70
2022-11-25T16:46:47.296Z,60.68
2022-11-25T16:49:50.352Z,60.45
2022-11-25T16:52:32.626Z,60.41
2022-11-25T16:55:32.796Z,60.16
2022-11-25T16:58:28.406Z,60.76
2022-11-25T17:01:26.892Z,60.71
2022-11-25T17:04:18.385Z,61.01
2022-11-25T17:07:34.885Z,61.06
2022-11-25T17:10:08.324Z,60.95
2022-11-25T17:12:54.510Z,60.93
2022-11-25T17:15:41.585Z,60.70
2022-11-25T17:18:26.480Z,60.76
2022-11-25T17:21:32.261Z,60.88
2022-11-25T17:24:24.698Z,61.62
2022-11-25T17:27:27.363Z,60.92
2022-11-25T17:30:25.434Z,61.66
2022-11-25T17:33:19.827Z,61.47
2022-11-25T17:36:15.590Z,61.50
2022-11-25T17:39:12.894Z,61.31
2022-11-25T17:41:58.766Z,61.27
2022-11-25T17:47:32.096Z,62.04
2022-11-25T17:50:22.592Z,61.86
2022-11-25T17:53:06.041Z,62.37
2022-11-25T17:56:02.754Z,62.36
2022-11-25T17:58:46.864Z,62.08
2022-11-25T18:01:31.807Z,61.96
2022-11-25T18:04:31.494Z,62.17
2022-11-25T18:07:22.486Z,62.55
2022-11-25T18:10:14.477Z,61.33
2022-11-25T18:15:53.335Z,62.07
2022-11-25T18:18:36.552Z,61.63
2022-11-25T18:21:20.496Z,62.67
2022-11-25T18:24:19.375Z,62.71
2022-11-25T18:27:02.261Z,62.53
2022-11-25T18:29:44.874Z,62.16
2022-11-25T18:32:50.406Z,62.19
2022-11-25T18:38:26.273Z,62.68
2022-11-25T18:41:13.439Z,62.52
2022-11-25T18:44:25.531Z,62.13
2022-11-25T18:47:11.063Z,62.24
2022-11-25T18:50:20.264Z,62.50
2022-11-25T18:53:03.517Z,62.03
2022-11-25T18:55:55.665Z,61.83
2022-11-25T19:01:36.812Z,61.76
2022-11-25T19:04:17.340Z,61.33
2022-11-25T19:07:00.871Z,61.46
2022-11-25T19:09:45.903Z,61.80
2022-11-25T19:12:32.288Z,61.75
2022-11-25T19:15:17.892Z,61.56
2022-11-25T19:18:03.474Z,61.64
2022-11-25T19:21:00.300Z,61.54
2022-11-25T19:23:42.632Z,61.36
2022-11-25T19:26:48.202Z,61.16
2022-11-25T19:29:42.302Z,61.98
2022-11-25T19:32:20.060Z,61.43
2022-11-25T19:34:52.367Z,61.87
2022-11-25T19:39:59.014Z,61.64
2022-11-25T19:42:31.874Z,61.40
2022-11-25T19:45:20.600Z,61.79
2022-11-25T19:48:13.963Z,61.73
2022-11-25T19:51:02.295Z,61.38
2022-11-25T19:53:47.321Z,61.53
2022-11-25T19:56:42.869Z,61.83
2022-11-25T19:59:35.308Z,61.68
2022-11-25T20:02:22.473Z,62.40
2022-11-25T20:05:05.986Z,61.80
2022-11-25T20:07:50.330Z,62.18
2022-11-25T20:10:46.477Z,61.78
2022-11-25T20:13:35.235Z,61.95
2022-11-25T20:16:17.782Z,62.10
2022-11-25T20:19:13.356Z,61.87
2022-11-25T20:22:09.841Z,61.84
2022-11-25T20:24:58.616Z,62.24
2022-11-25T20:27:54.219Z,62.60
2022-11-25T20:30:35.543Z,62.12
2022-11-25T20:33:25.708Z,62.67
2022-11-25T20:36:38.521Z,62.62
2022-11-25T20:39:26.275Z,62.01
2022-11-25T20:42:20.141Z,63.22
2022-11-25T20:45:00.000Z,62.95
2022-11-25T20:47:45.525Z,62.89
2022-11-25T20:50:38.779Z,62.53
2022-11-25T20:53:22.308Z,62.11
2022-11-25T20:56:25.300Z,61.66
2022-11-25T20:59:18.999Z,61.89
2022-11-25T21:02:01.809Z,62.50
2022-11-25T21:04:45.871Z,63.36
2022-11-25T21:07:39.802Z,62.71
2022-11-25T21:10:28.371Z,62.55
2022-11-25T21:13:28.856Z,62.89
2022-11-25T21:16:14.748Z,62.90
2022-11-25T21:19:08.363Z,62.99
2022-11-25T21:21:50.657Z,62.71
2022-11-25T21:24:39.396Z,63.05
2022-11-25T21:27:31.317Z,62.76
2022-11-25T21:30:19.977Z,62.53
2022-11-25T21:33:03.222Z,61.99
2022-11-25T21:35:56.150Z,61.38
2022-11-25T21:38:38.529Z,62.36
2022-11-25T21:41:45.033Z,62.27
2022-11-25T21:44:29.062Z,63.86
2022-11-25T21:47:29.152Z,65.51
2022-11-25T21:50:16.566Z,66.84
2022-11-25T21:53:09.804Z,67.02
2022-11-25T21:55:55.025Z,67.05
2022-11-25T21:58:50.515Z,67.17
2022-11-25T22:01:37.229Z,67.14
2022-11-25T22:04:21.033Z,67.78
2022-11-25T22:07:04.496Z,68.75
2022-11-25T22:10:00.173Z,67.84
2022-11-25T22:12:43.270Z,67.71
2022-11-25T22:15:37.365Z,67.99
2022-11-25T22:18:28.665Z,68.14
2022-11-25T22:21:24.239Z,67.95
2022-11-25T22:24:14.261Z,67.89
2022-11-25T22:27:03.567Z,67.60
2022-11-25T22:29:59.881Z,67.07
2022-11-25T22:32:44.975Z,67.37
2022-11-25T22:35:30.820Z,67.42
2022-11-25T22:38:16.719Z,67.65
2022-11-25T22:41:06.882Z,66.14
2022-11-25T22:43:58.443Z,66.51
2022-11-25T22:46:40.210Z,67.46
2022-11-25T22:49:58.279Z,67.28
2022-11-25T22:52:37.741Z,65.82
2022-11-25T22:55:22.860Z,64.85
2022-11-25T22:58:05.000Z,64.35
2022-11-25T23:00:57.043Z,64.53
2022-11-25T23:03:39.770Z,64.80
2022-11-25T23:06:23.191Z,65.28
2022-11-25T23:09:04.375Z,65.76
2022-11-25T23:11:39.701Z,65.82
2022-11-25T23:14:13.234Z,65.75
2022-11-25T23:16:43.362Z,65.69
2022-11-25T23:19:18.512Z,66.25
2022-11-25T23:21:47.628Z,66.62
2022-11-25T23:24:16.972Z,67.31
2022-11-25T23:26:45.334Z,67.24
2022-11-25T23:29:13.477Z,66.71
2022-11-25T23:31:52.465Z,66.39
2022-11-25T23:34:43.628Z,67.46
2022-11-25T23:41:33.838Z,65.70
2022-11-25T23:44:24.940Z,66.18
2022-11-25T23:47:20.972Z,66.05
2022-11-25T23:50:32.413Z,67.33
2022-11-25T23:53:24.692Z,67.39
2022-11-25T23:56:07.729Z,67.72
2022-11-25T23:59:03.279Z,66.62
